This is the latest recevied weather packets stored in our database for station/object OK2ZI. If no packets are shown the sender has not sent any weather packets the latest 10 day(s).
| Time | Temp. | Humidity | Pressure | Rain* | Wind** | Luminosity | Snow |
|---|---|---|---|---|---|---|---|
| 1777778766 | 4.44° C | 75% | 1016 hPa | 0 mm | - | - | - |
| 1777777566 | 4.44° C | 76% | 1016 hPa | 0 mm | - | - | - |
| 1777776966 | 5° C | 75% | 1016 hPa | 0 mm | - | - | - |
| 1777776847 | 5.56° C | 73% | 1016 hPa | 0 mm | - | - | - |
| 1777776127 | 5.56° C | 73% | 1016 hPa | 0 mm | - | - | - |
| 1777775527 | 5.56° C | 69% | 1016 hPa | 0 mm | - | - | - |
| 1777775287 | 5° C | 72% | 1016 hPa | 0 mm | - | - | - |
| 1777775047 | 4.44° C | 74% | 1016 hPa | 0 mm | - | - | - |
| 1777774567 | 3.89° C | 78% | 1016 hPa | 0 mm | - | - | - |
| 1777774327 | 3.89° C | 77% | 1016 hPa | 0 mm | - | - | - |
| 1777773486 | 3.89° C | 77% | 1016 hPa | 0 mm | - | - | - |
| 1777772647 | 6.11° C | 70% | 1016 hPa | 0 mm | - | - | - |
| 1777772046 | 6.11° C | 69% | 1016 hPa | 0 mm | - | - | - |
| 1777771087 | 6.11° C | 65% | 1016 hPa | 0 mm | - | - | - |
| 1777770966 | 5.56° C | 68% | 1016 hPa | 0 mm | - | - | - |
| 1777770612 | 6.11° C | 69% | 1016 hPa | 0 mm | - | - | - |
| 1777770367 | 6.11° C | 68% | 1016 hPa | 0 mm | - | - | - |
| 1777769887 | 5.56° C | 69% | 1016 hPa | 0 mm | - | - | - |
| 1777769766 | 5° C | 70% | 1016 hPa | 0 mm | - | - | - |
| 1777769526 | 4.44° C | 72% | 1016 hPa | 0 mm | - | - | - |
| 1777768566 | 5° C | 71% | 1016 hPa | 0 mm | - | - | - |
| 1777768215 | 4.44° C | 73% | 1016 hPa | 0 mm | - | - | - |
| 1777766888 | 4.44° C | 77% | 1016 hPa | 0 mm | - | - | - |
| 1777766767 | 5° C | 73% | 1016 hPa | 0 mm | - | - | - |
| 1777765687 | 5° C | 74% | 1016 hPa | 0 mm | - | - | - |
* Rain latest hour (hover to see other rain measurements)
** Current wind speed in m/s (hover to see current wind gust speed)